Time;durP1;ratioP1;P1;durP2;ratioP2;P2;SDS_P1;SDS_P2;PMS_P1;PMS_P2;Temp;Humidity;BMP_temperature;BMP_pressure;BME280_temperature;BME280_humidity;BME280_pressure;Samples;Min_cycle;Max_cycle;Signal;HPM_P1;HPM_P2
2021/12/23 00:01:05;;;;;;;42.10;18.63;;;-2.80;86.80;;;-2.29;64.00;97916.66;5007438;28;20054;-47
2021/12/23 00:03:33;;;;;;;37.67;16.83;;;-2.80;86.80;;;-2.31;64.07;97905.47;5006922;28;20076;-47
2021/12/23 00:06:01;;;;;;;42.23;17.83;;;-2.80;86.80;;;-2.31;63.51;97905.47;5006091;28;20053;-47
2021/12/23 00:08:29;;;;;;;35.13;15.17;;;-2.80;87.10;;;-2.29;63.93;97896.66;5007454;28;20320;-50
2021/12/23 00:10:57;;;;;;;35.67;16.40;;;-2.70;87.50;;;-2.26;63.79;97895.66;5006498;28;20058;-50
2021/12/23 00:13:25;;;;;;;38.80;15.47;;;-2.70;87.00;;;-2.27;63.85;97896.56;5006534;28;20061;-48
2021/12/23 00:24:00;;;;;;;38.30;14.53;;;-2.70;86.70;;;-2.25;64.31;97881.69;5007010;28;20046;-48
2021/12/23 00:26:29;;;;;;;36.43;16.60;;;-2.60;86.70;;;-2.22;63.89;97878.94;5008642;28;20054;-49
2021/12/23 00:28:57;;;;;;;34.03;16.50;;;-2.60;86.40;;;-2.23;64.27;97872.91;5007402;28;20256;-47
2021/12/23 00:31:25;;;;;;;30.93;15.03;;;-2.60;86.30;;;-2.23;64.31;97874.63;5006846;28;20378;-48
2021/12/23 00:33:53;;;;;;;29.73;15.73;;;-2.70;86.60;;;-2.23;64.41;97872.03;5007240;28;20053;-48
2021/12/23 00:36:21;;;;;;;41.47;19.30;;;-2.70;86.30;;;-2.26;64.03;97852.16;5008160;28;20068;-48
2021/12/23 00:38:55;;;;;;;35.13;17.10;;;-2.70;86.50;;;-2.31;64.07;97856.75;5006689;28;20053;-48
2021/12/23 00:41:24;;;;;;;33.00;15.57;;;-2.80;86.80;;;-2.34;63.80;97858.69;5007535;28;20394;-48
2021/12/23 00:43:51;;;;;;;32.87;16.10;;;-2.90;87.50;;;-2.33;63.88;97860.38;5007283;28;20344;-48
2021/12/23 00:46:19;;;;;;;38.10;16.80;;;-2.80;87.80;;;-2.32;64.21;97862.06;5006265;28;20049;-49
2021/12/23 00:48:47;;;;;;;34.97;15.80;;;-2.80;87.60;;;-2.31;64.25;97858.53;5005943;28;20096;-50
2021/12/23 00:51:15;;;;;;;35.13;16.37;;;-2.80;87.30;;;-2.29;64.30;97859.28;5007715;28;20056;-47
2021/12/23 00:53:45;;;;;;;33.37;13.83;;;-2.70;87.50;;;-2.26;64.56;97852.16;5005720;28;20076;-46
2021/12/23 00:56:12;;;;;;;35.47;15.77;;;-2.60;87.50;;;-2.23;63.87;97853.78;5006202;28;20060;-47
2021/12/23 00:58:41;;;;;;;39.13;16.57;;;-2.60;86.50;;;-2.24;64.04;97852.09;5007416;28;20382;-46
2021/12/23 01:01:09;;;;;;;30.30;15.30;;;-2.60;86.70;;;-2.23;63.86;97840.72;5005802;28;20061;-46
2021/12/23 01:03:37;;;;;;;30.13;15.43;;;-2.60;86.50;;;-2.25;64.28;97848.66;5005548;28;20351;-46
2021/12/23 01:06:05;;;;;;;35.20;15.67;;;-2.70;86.80;;;-2.26;64.12;97848.72;5006077;28;20052;-48
2021/12/23 01:08:33;;;;;;;35.00;15.83;;;-2.70;86.60;;;-2.27;64.03;97840.06;5010373;28;20050;-47
2021/12/23 01:11:01;;;;;;;34.77;17.50;;;-2.70;86.80;;;-2.29;63.95;97830.59;5010814;28;20049;-50
2021/12/23 01:13:29;;;;;;;33.60;14.93;;;-2.70;87.00;;;-2.30;64.11;97828.94;5010697;28;20251;-49
2021/12/23 01:18:43;;;;;;;34.93;16.57;;;-2.60;86.80;;;-2.27;64.47;97823.53;5011727;28;20042;-46
2021/12/23 01:21:16;;;;;;;30.45;14.57;;;-2.60;86.70;;;-2.27;64.02;97826.16;5011476;28;20048;-47
2021/12/23 01:23:52;;;;;;;33.28;15.77;;;-2.70;86.00;;;-2.33;63.83;97814.25;5010581;28;20060;-47
2021/12/23 01:26:22;;;;;;;34.27;15.40;;;-2.70;86.50;;;-2.40;63.97;97811.13;5008532;28;20058;-48
2021/12/23 01:28:58;;;;;;;31.03;14.67;;;-2.90;86.80;;;-2.40;64.19;97798.09;5010168;28;20057;-47
2021/12/23 01:31:30;;;;;;;32.73;14.23;;;-2.90;87.80;;;-2.40;64.33;97800.69;5011088;28;20066;-49
2021/12/23 01:33:58;;;;;;;30.87;14.50;;;-2.90;87.20;;;-2.43;64.21;97803.44;5010684;28;20441;-46
2021/12/23 01:36:27;;;;;;;29.40;13.07;;;-3.00;87.70;;;-2.44;64.61;97799.19;5008234;28;20375;-50
2021/12/23 01:38:55;;;;;;;35.17;15.73;;;-2.90;88.30;;;-2.40;64.85;97794.66;5010617;28;20060;-50
2021/12/23 01:41:25;;;;;;;33.53;14.23;;;-2.80;88.00;;;-2.41;64.35;97803.38;5011171;28;20236;-47
2021/12/23 01:43:53;;;;;;;33.33;16.27;;;-2.80;87.40;;;-2.42;64.87;97799.94;5010804;28;20050;-47
2021/12/23 01:46:22;;;;;;;33.07;16.00;;;-2.90;87.50;;;-2.45;64.62;97789.66;5008732;28;20374;-50
2021/12/23 01:48:51;;;;;;;26.07;13.30;;;-2.90;88.00;;;-2.41;64.97;97795.56;5007843;28;20352;-46
2021/12/23 01:51:20;;;;;;;38.67;15.80;;;-2.90;88.00;;;-2.40;64.51;97784.22;5009803;28;20056;-49
2021/12/23 01:53:48;;;;;;;53.13;22.10;;;-2.80;87.90;;;-2.35;64.55;97781.38;5008905;28;20054;-48
2021/12/23 01:56:17;;;;;;;90.33;34.27;;;-2.70;87.50;;;-2.31;64.82;97772.47;5009163;28;20060;-47
2021/12/23 01:58:46;;;;;;;58.73;25.23;;;-2.70;87.60;;;-2.24;64.98;97773.84;5008913;28;20248;-46
2021/12/23 02:01:14;;;;;;;40.57;19.90;;;-2.60;87.40;;;-2.23;64.38;97771.16;5011341;28;20049;-46
2021/12/23 02:03:42;;;;;;;45.83;20.07;;;-2.60;87.20;;;-2.19;64.49;97772.69;5009687;28;20065;-47
2021/12/23 02:06:10;;;;;;;43.10;18.93;;;-2.50;87.50;;;-2.14;64.51;97764.63;5009380;28;20045;-45
2021/12/23 02:08:39;;;;;;;52.00;21.90;;;-2.50;87.20;;;-2.12;65.02;97767.16;5007651;28;20057;-44
2021/12/23 02:11:10;;;;;;;52.03;21.97;;;-2.50;86.70;;;-2.09;64.86;97759.19;5009371;28;20042;-45
2021/12/23 02:13:39;;;;;;;59.97;25.53;;;-2.40;86.60;;;-2.06;65.04;97764.22;5010162;28;20117;-44
2021/12/23 02:16:07;;;;;;;49.33;21.77;;;-2.40;86.50;;;-2.05;64.88;97758.94;5009070;28;20054;-45
2021/12/23 02:18:36;;;;;;;66.97;27.43;;;-2.40;86.20;;;-2.02;64.87;97757.91;5008367;28;20060;-48
2021/12/23 02:21:05;;;;;;;68.13;29.27;;;-2.40;86.70;;;-1.98;64.83;97751.59;5009659;28;20120;-45
2021/12/23 02:23:34;;;;;;;53.70;23.13;;;-2.30;86.50;;;-1.95;64.89;97750.63;5008520;28;20244;-45
2021/12/23 02:26:03;;;;;;;84.63;33.13;;;-2.20;86.00;;;-1.95;64.50;97746.25;5008330;28;20256;-45
2021/12/23 02:28:31;;;;;;;75.53;29.40;;;-2.20;85.40;;;-1.91;64.39;97752.97;5008640;28;20049;-47
2021/12/23 02:30:59;;;;;;;55.13;22.70;;;-2.20;85.20;;;-1.90;64.83;97757.28;5010563;28;20045;-45
2021/12/23 02:33:28;;;;;;;65.23;24.07;;;-2.30;85.40;;;-1.87;64.28;97756.28;5007234;28;20064;-45
2021/12/23 02:35:58;;;;;;;39.30;18.40;;;-2.20;85.80;;;-1.83;64.09;97760.41;5008301;28;20046;-44
2021/12/23 02:38:27;;;;;;;137.37;48.67;;;-2.20;85.60;;;-1.81;64.41;97754.16;5008502;28;20064;-47
2021/12/23 02:40:54;;;;;;;48.80;22.80;;;-2.20;85.40;;;-1.77;64.71;97747.03;5008542;28;20038;-47
2021/12/23 02:43:29;;;;;;;52.53;22.30;;;-2.10;85.60;;;-1.74;64.42;97744.25;5009150;28;20075;-47
2021/12/23 02:45:59;;;;;;;52.73;23.03;;;-2.10;84.90;;;-1.71;63.93;97746.69;5008276;28;20061;-47
2021/12/23 02:48:33;;;;;;;34.10;16.30;;;-2.10;84.90;;;-1.67;64.02;97742.16;5008012;28;20046;-45
2021/12/23 02:51:12;;;;;;;32.45;14.70;;;-2.00;84.30;;;-1.68;63.98;97736.09;5008727;28;20060;-45
2021/12/23 02:53:41;;;;;;;35.37;15.97;;;-2.00;84.50;;;-1.68;63.78;97732.66;5007672;28;20046;-44
2021/12/23 02:56:16;;;;;;;34.27;16.63;;;-2.10;84.30;;;-1.70;64.16;97732.72;4998992;28;20233;-47
2021/12/23 02:58:45;;;;;;;30.67;15.93;;;-2.10;84.20;;;-1.74;63.55;97733.81;4988906;28;20074;-45
2021/12/23 03:01:16;;;;;;;32.27;14.93;;;-2.10;84.10;;;-1.74;63.89;97733.00;4990126;28;20046;-44
2021/12/23 03:03:44;;;;;;;31.00;14.33;;;-2.20;84.10;;;-1.75;64.03;97724.28;4988508;28;20076;-45
2021/12/23 03:06:18;;;;;;;31.07;14.60;;;-2.10;84.30;;;-1.75;63.71;97713.84;4989188;28;20046;-47
2021/12/23 03:08:53;;;;;;;30.70;14.45;;;-2.10;84.20;;;-1.74;63.70;97704.28;4989533;28;20138;-47
2021/12/23 03:11:24;;;;;;;28.40;14.67;;;-2.10;84.20;;;-1.73;63.71;97719.00;4989182;28;20060;-47
2021/12/23 03:13:53;;;;;;;35.27;15.67;;;-2.10;84.00;;;-1.73;64.40;97719.00;4988831;28;20072;-45
2021/12/23 03:16:25;;;;;;;31.73;15.33;;;-2.20;83.80;;;-1.74;63.71;97704.28;4988600;28;20056;-44
2021/12/23 03:18:53;;;;;;;28.57;13.03;;;-2.10;84.00;;;-1.73;64.11;97698.94;4989143;28;20052;-46
2021/12/23 03:21:21;;;;;;;30.67;14.30;;;-2.10;84.00;;;-1.73;64.04;97692.91;4988952;28;20061;-45
2021/12/23 03:23:51;;;;;;;29.40;14.60;;;-2.10;84.10;;;-1.72;64.05;97700.66;4988949;28;20046;-44
2021/12/23 03:26:20;;;;;;;31.10;13.47;;;-2.10;84.20;;;-1.70;64.22;97690.97;5003194;28;20066;-46
2021/12/23 03:28:48;;;;;;;32.03;13.50;;;-2.00;84.00;;;-1.69;63.66;97690.03;4988769;28;20276;-45
2021/12/23 03:31:15;;;;;;;23.50;13.47;;;-2.10;83.60;;;-1.70;64.04;97675.31;5004591;28;20089;-45
2021/12/23 03:33:43;;;;;;;30.77;13.60;;;-2.00;83.70;;;-1.67;63.77;97676.88;4987972;28;20378;-45
2021/12/23 03:36:11;;;;;;;32.00;14.40;;;-2.10;84.00;;;-1.65;63.96;97672.41;4987950;28;20379;-45
2021/12/23 03:38:39;;;;;;;27.83;14.00;;;-2.00;83.70;;;-1.64;64.08;97664.50;4988257;28;20046;-46
2021/12/23 03:41:07;;;;;;;28.00;13.20;;;-2.10;83.90;;;-1.66;63.98;97660.31;4989482;28;20072;-47
2021/12/23 03:43:35;;;;;;;30.17;13.63;;;-2.00;83.70;;;-1.62;63.89;97664.44;4987947;28;20054;-45
2021/12/23 03:46:03;;;;;;;27.90;14.20;;;-2.00;83.50;;;-1.62;64.16;97657.44;4988338;28;20234;-45
2021/12/23 03:48:31;;;;;;;26.90;13.33;;;-2.00;83.20;;;-1.61;63.84;97653.06;4987224;28;20052;-46
2021/12/23 03:50:58;;;;;;;30.03;14.13;;;-2.00;83.10;;;-1.60;63.69;97647.75;4988492;28;20058;-45
2021/12/23 03:53:26;;;;;;;31.53;13.93;;;-2.00;83.40;;;-1.59;64.27;97653.81;4988508;28;20085;-44
2021/12/23 03:55:54;;;;;;;30.23;13.37;;;-1.90;83.60;;;-1.56;64.09;97652.81;4989898;28;20058;-45
2021/12/23 03:58:22;;;;;;;27.03;13.03;;;-1.90;83.50;;;-1.53;64.10;97650.00;4987690;28;20058;-47
2021/12/23 04:00:50;;;;;;;29.07;14.53;;;-1.90;83.20;;;-1.53;63.87;97650.00;4988321;28;20054;-47
2021/12/23 04:03:18;;;;;;;26.47;13.10;;;-1.80;83.10;;;-1.52;63.66;97647.31;4987440;28;20050;-47
2021/12/23 04:05:46;;;;;;;28.43;13.07;;;-1.90;83.00;;;-1.53;64.24;97640.44;4987402;28;20340;-47
2021/12/23 04:08:14;;;;;;;35.53;14.10;;;-1.90;83.10;;;-1.51;64.21;97641.19;5002745;28;20568;-45
2021/12/23 04:10:42;;;;;;;29.07;13.40;;;-1.90;83.30;;;-1.50;64.24;97637.63;4988074;28;20062;-45
2021/12/23 04:13:10;;;;;;;29.57;13.53;;;-1.90;83.10;;;-1.49;63.78;97641.94;4988066;28;20078;-46
2021/12/23 04:15:38;;;;;;;35.13;16.37;;;-1.90;83.20;;;-1.48;63.70;97638.38;4987691;28;20046;-46
2021/12/23 04:18:06;;;;;;;35.00;17.00;;;-1.80;83.20;;;-1.46;63.87;97641.75;4988218;28;20046;-47
2021/12/23 04:20:45;;;;;;;32.07;16.00;;;-1.80;82.80;;;-1.46;63.26;97646.13;4989357;28;20076;-45
2021/12/23 04:23:13;;;;;;;31.20;15.27;;;-1.80;82.10;;;-1.56;63.38;97648.41;4986840;28;20072;-47
2021/12/23 04:25:41;;;;;;;32.07;15.17;;;-2.00;82.50;;;-1.64;63.72;97635.78;5002656;28;20057;-47
2021/12/23 04:28:09;;;;;;;29.37;14.57;;;-2.10;83.40;;;-1.62;63.93;97620.06;4988664;28;20053;-46
2021/12/23 04:30:37;;;;;;;29.93;15.13;;;-2.10;84.00;;;-1.59;64.23;97625.09;4988409;28;20058;-45
2021/12/23 04:33:05;;;;;;;26.93;13.07;;;-2.00;84.20;;;-1.58;63.69;97632.84;4987654;28;20056;-47
2021/12/23 04:35:33;;;;;;;31.10;15.07;;;-2.00;83.30;;;-1.65;63.62;97638.47;4986762;28;20056;-47
2021/12/23 04:38:01;;;;;;;29.23;13.70;;;-2.10;83.30;;;-1.67;63.95;97637.72;4987001;28;20356;-45
2021/12/23 04:40:34;;;;;;;31.10;14.90;;;-2.10;84.10;;;-1.63;64.18;97636.63;4990069;28;20213;-45
2021/12/23 04:43:04;;;;;;;33.42;14.65;;;-2.10;84.20;;;-1.65;63.67;97615.00;4986616;28;20068;-47
2021/12/23 04:45:33;;;;;;;32.20;16.27;;;-2.10;84.00;;;-1.64;63.68;97614.06;4986961;28;20062;-46
2021/12/23 04:48:01;;;;;;;30.10;15.67;;;-2.10;84.20;;;-1.62;63.54;97602.59;4988917;28;20065;-46
2021/12/23 04:50:29;;;;;;;30.33;15.00;;;-2.00;84.00;;;-1.61;63.82;97598.22;4988797;28;20058;-46
2021/12/23 04:52:57;;;;;;;26.47;13.53;;;-2.00;84.20;;;-1.61;63.62;97595.59;4986996;28;20054;-48
2021/12/23 04:55:25;;;;;;;32.23;16.47;;;-2.00;84.00;;;-1.64;63.59;97596.63;4986084;28;20047;-47
2021/12/23 04:57:53;;;;;;;27.47;14.17;;;-2.00;84.00;;;-1.70;63.42;97599.59;4986405;28;20084;-45
2021/12/23 05:00:22;;;;;;;33.77;15.10;;;-2.20;83.60;;;-1.74;63.85;97597.25;4988429;28;20141;-45
2021/12/23 05:02:50;;;;;;;29.67;14.20;;;-2.20;84.00;;;-1.76;63.95;97606.91;4987091;28;20058;-47
2021/12/23 05:05:18;;;;;;;35.37;15.87;;;-2.20;84.40;;;-1.76;63.46;97610.38;4986313;28;20325;-44
2021/12/23 05:07:48;;;;;;;32.90;14.73;;;-2.20;84.10;;;-1.80;63.90;97601.88;4987020;28;20058;-44
2021/12/23 05:10:16;;;;;;;34.43;20.80;;;-2.30;83.90;;;-1.81;63.52;97601.97;5002737;28;20264;-46
2021/12/23 05:12:46;;;;;;;25.87;14.07;;;-2.30;84.60;;;-1.79;63.61;97602.72;4987015;28;20064;-45
2021/12/23 05:15:19;;;;;;;33.87;16.20;;;-2.30;84.40;;;-1.95;63.63;97612.34;4986696;28;20241;-45
2021/12/23 05:17:48;;;;;;;35.22;16.55;;;-2.50;83.60;;;-2.03;63.33;97610.13;4987527;28;20046;-44
2021/12/23 05:20:18;;;;;;;30.43;14.97;;;-2.60;84.80;;;-2.03;63.59;97610.97;4988090;28;20065;-45
2021/12/23 05:22:48;;;;;;;30.57;15.27;;;-2.50;85.20;;;-1.99;63.63;97616.88;4987043;28;20058;-44
2021/12/23 05:25:17;;;;;;;33.87;16.03;;;-2.50;85.20;;;-1.96;63.77;97615.84;4986855;28;20467;-45
2021/12/23 05:27:46;;;;;;;32.93;15.50;;;-2.40;84.60;;;-1.96;64.12;97614.06;5001242;28;20054;-44
2021/12/23 05:30:16;;;;;;;30.93;13.50;;;-2.40;84.10;;;-1.95;63.96;97609.72;4988511;28;20058;-46
2021/12/23 05:32:45;;;;;;;31.03;14.57;;;-2.40;84.10;;;-1.94;64.32;97601.78;4987416;28;20062;-44
2021/12/23 05:35:17;;;;;;;29.33;14.73;;;-2.40;84.10;;;-1.95;63.99;97597.50;4987035;28;20074;-45
2021/12/23 05:37:45;;;;;;;30.33;13.73;;;-2.30;84.10;;;-1.93;63.97;97595.66;4986936;28;20390;-44
2021/12/23 05:40:16;;;;;;;29.70;14.83;;;-2.30;84.70;;;-1.96;63.47;97584.53;4987819;28;20056;-45
2021/12/23 05:42:46;;;;;;;30.27;15.23;;;-2.40;83.90;;;-1.94;63.62;97593.13;4986849;28;20050;-46
2021/12/23 05:45:14;;;;;;;37.57;19.13;;;-2.30;84.10;;;-1.95;63.99;97594.06;4987378;28;20638;-45
2021/12/23 05:47:43;;;;;;;34.67;16.80;;;-2.40;83.50;;;-1.99;63.24;97582.97;4986854;28;20058;-46
2021/12/23 05:50:13;;;;;;;37.10;17.10;;;-2.40;83.70;;;-2.01;63.50;97569.97;4987762;28;20076;-45
2021/12/23 05:52:41;;;;;;;29.83;14.67;;;-2.50;83.60;;;-2.04;63.27;97564.09;4986855;28;20064;-44
2021/12/23 05:55:10;;;;;;;35.97;16.33;;;-2.50;84.00;;;-2.05;63.95;97550.22;4988951;28;20763;-45
2021/12/23 05:57:40;;;;;;;29.73;14.80;;;-2.50;84.50;;;-2.04;63.42;97562.31;4990167;28;20054;-45
2021/12/23 06:00:23;;;;;;;40.17;19.67;;;-2.50;84.50;;;-2.02;63.48;97576.13;4990810;28;20412;-44
2021/12/23 06:02:53;;;;;;;31.40;18.43;;;-2.50;84.00;;;-2.07;63.59;97564.28;4990600;28;20057;-44
2021/12/23 06:05:22;;;;;;;34.13;17.10;;;-2.50;83.80;;;-2.10;63.99;97551.38;4990961;28;20088;-48
2021/12/23 06:07:50;;;;;;;31.77;16.43;;;-2.60;84.10;;;-2.10;63.55;97552.22;4990732;28;20216;-46
2021/12/23 06:10:19;;;;;;;34.63;16.73;;;-2.60;84.20;;;-2.07;63.75;97548.63;4993040;28;20062;-47
2021/12/23 06:12:47;;;;;;;30.07;16.17;;;-2.50;84.00;;;-2.06;63.93;97553.72;4990233;28;20046;-44
2021/12/23 06:15:17;;;;;;;27.57;14.60;;;-2.50;83.90;;;-2.06;63.89;97551.13;4989653;28;20057;-44
2021/12/23 06:17:45;;;;;;;28.20;15.53;;;-2.50;84.00;;;-2.03;63.98;97543.16;4991165;28;20072;-45
2021/12/23 06:20:13;;;;;;;27.50;13.13;;;-2.40;83.80;;;-2.00;63.62;97542.97;4991399;28;20289;-49
2021/12/23 06:22:41;;;;;;;28.30;15.43;;;-2.40;83.30;;;-2.04;63.88;97556.25;4990098;28;20054;-45
2021/12/23 06:25:12;;;;;;;28.33;12.87;;;-2.40;82.90;;;-2.15;64.13;97556.88;4990029;28;20332;-46
2021/12/23 06:27:41;;;;;;;32.30;14.27;;;-2.50;83.40;;;-2.12;63.69;97554.09;4990363;28;20370;-45
2021/12/23 06:30:16;;;;;;;30.07;14.40;;;-2.50;83.60;;;-2.07;63.70;97564.28;4991161;28;20055;-44
2021/12/23 06:32:47;;;;;;;29.33;13.33;;;-2.50;84.30;;;-2.01;64.14;97572.59;4989927;28;20061;-46
2021/12/23 06:35:17;;;;;;;29.03;12.70;;;-2.30;84.60;;;-1.96;64.27;97590.59;4988601;28;20068;-45
2021/12/23 06:37:45;;;;;;;31.07;14.87;;;-2.20;84.20;;;-1.98;64.12;97590.69;4990001;28;20364;-46
2021/12/23 06:40:13;;;;;;;27.47;13.17;;;-2.40;83.80;;;-1.95;63.95;97579.25;4991185;28;20054;-48
2021/12/23 06:42:41;;;;;;;25.53;13.33;;;-2.30;84.30;;;-1.94;64.17;97570.47;4988901;28;20042;-45
2021/12/23 06:45:10;;;;;;;31.17;13.60;;;-2.40;84.30;;;-1.89;64.31;97575.47;4990131;28;20232;-45
2021/12/23 06:47:38;;;;;;;28.50;13.67;;;-2.30;84.20;;;-1.86;64.50;97567.44;4989540;28;20057;-45
2021/12/23 06:50:09;;;;;;;31.40;13.90;;;-2.20;84.20;;;-1.80;64.07;97567.13;4990618;28;20058;-49
2021/12/23 06:52:38;;;;;;;27.03;14.80;;;-2.10;84.00;;;-1.77;64.01;97545.22;4989296;28;20065;-45
2021/12/23 06:55:10;;;;;;;29.60;15.30;;;-2.20;83.60;;;-1.76;64.13;97549.50;4990254;28;20246;-46
2021/12/23 06:57:40;;;;;;;33.30;14.53;;;-2.10;83.70;;;-1.72;64.09;97553.63;4989437;28;20042;-47
2021/12/23 07:00:14;;;;;;;31.90;16.47;;;-2.10;83.50;;;-1.71;63.67;97552.69;4990826;28;20769;-45
2021/12/23 07:02:43;;;;;;;25.60;13.77;;;-2.00;83.20;;;-1.70;64.13;97559.59;4989361;28;20048;-47
2021/12/23 07:05:12;;;;;;;29.83;14.20;;;-2.10;83.50;;;-1.71;64.44;97537.88;4989243;28;20054;-44
2021/12/23 07:07:50;;;;;;;30.43;15.30;;;-2.10;83.20;;;-1.70;64.38;97546.56;4989409;28;20252;-44
2021/12/23 07:10:26;;;;;;;37.23;19.17;;;-2.10;83.40;;;-1.69;63.98;97551.66;4989407;28;20045;-44
2021/12/23 07:12:57;;;;;;;32.27;16.33;;;-2.10;83.30;;;-1.68;63.78;97548.13;4990053;28;20084;-47
2021/12/23 07:15:26;;;;;;;33.97;18.50;;;-2.10;83.20;;;-1.69;64.02;97554.28;4989884;28;20050;-46
2021/12/23 07:17:57;;;;;;;35.93;17.40;;;-2.10;83.30;;;-1.68;64.22;97542.91;4988513;28;20264;-46
2021/12/23 07:20:27;;;;;;;58.30;30.17;;;-2.10;83.50;;;-1.68;63.61;97537.69;4989542;28;20240;-43
2021/12/23 07:22:56;;;;;;;34.37;18.40;;;-2.10;83.40;;;-1.66;63.99;97545.44;4988902;28;20067;-44
2021/12/23 07:25:24;;;;;;;31.83;14.10;;;-2.10;83.60;;;-1.62;63.50;97552.19;4989099;28;20072;-45
2021/12/23 07:27:53;;;;;;;28.13;12.83;;;-2.00;83.30;;;-1.62;64.14;97549.56;5004390;28;20062;-46
2021/12/23 07:30:22;;;;;;;27.13;13.53;;;-2.00;83.10;;;-1.61;63.97;97551.22;4990010;28;20244;-45
2021/12/23 07:32:52;;;;;;;26.47;13.07;;;-2.00;83.40;;;-1.61;63.72;97546.88;4989147;28;20054;-46
2021/12/23 07:35:20;;;;;;;29.07;13.40;;;-2.00;83.20;;;-1.61;64.33;97536.44;4989448;28;20077;-46
2021/12/23 07:37:49;;;;;;;30.27;14.10;;;-2.00;83.40;;;-1.60;63.56;97527.66;4985079;28;20081;-46
2021/12/23 07:40:17;;;;;;;36.40;16.33;;;-2.00;83.00;;;-1.61;64.04;97530.34;4988689;28;20050;-45
2021/12/23 07:45:41;;;;;;;35.70;17.97;;;-2.10;83.20;;;-1.61;64.00;97528.59;5003276;28;20068;-44
2021/12/23 07:48:08;;;;;;;42.53;24.23;;;-2.10;83.60;;;-1.57;64.07;97534.50;4988586;28;20054;-44
2021/12/23 07:50:37;;;;;;;38.00;20.30;;;-2.00;83.50;;;-1.56;64.21;97538.75;4989083;28;20064;-44
2021/12/23 07:53:05;;;;;;;61.20;29.67;;;-2.00;83.60;;;-1.56;63.90;97528.31;4987440;28;20057;-43
2021/12/23 07:55:33;;;;;;;42.73;20.03;;;-2.00;83.50;;;-1.55;63.67;97524.78;4987786;28;20066;-47
2021/12/23 07:58:01;;;;;;;35.40;18.27;;;-2.00;83.30;;;-1.55;64.12;97519.56;5020610;28;20065;-48
2021/12/23 08:00:29;;;;;;;31.87;17.03;;;-2.00;83.60;;;-1.52;64.17;97514.16;4989392;28;20065;-48
2021/12/23 08:02:57;;;;;;;31.13;14.20;;;-1.90;83.90;;;-1.49;63.75;97521.81;4988728;28;20053;-46
2021/12/23 08:05:26;;;;;;;31.00;13.17;;;-1.90;83.70;;;-1.45;64.14;97525.09;4989402;28;20226;-45
2021/12/23 08:07:54;;;;;;;28.47;14.63;;;-1.80;83.60;;;-1.40;63.75;97523.03;4989277;28;20367;-49
2021/12/23 08:10:23;;;;;;;27.73;13.87;;;-1.80;83.60;;;-1.36;64.55;97514.09;4989189;28;20275;-46
2021/12/23 08:12:51;;;;;;;29.10;13.83;;;-1.70;83.30;;;-1.29;64.07;97504.13;4987491;28;20244;-46
2021/12/23 08:15:19;;;;;;;27.60;12.83;;;-1.60;83.30;;;-1.26;64.26;97510.03;4987683;28;20058;-48
2021/12/23 08:17:47;;;;;;;27.60;13.37;;;-1.60;83.10;;;-1.19;64.08;97506.09;4987706;28;20049;-51
2021/12/23 08:20:16;;;;;;;28.97;13.77;;;-1.40;83.40;;;-1.15;64.09;97498.91;4987734;28;20366;-48
2021/12/23 08:22:44;;;;;;;25.00;14.10;;;-1.30;83.10;;;-1.11;63.75;97502.19;4987553;28;20050;-51
2021/12/23 08:25:13;;;;;;;31.10;15.13;;;-1.30;82.90;;;-1.07;64.21;97496.69;4987783;28;20225;-48
2021/12/23 08:27:43;;;;;;;25.33;12.97;;;-1.30;82.70;;;-1.03;63.90;97515.63;4986535;28;20364;-47
2021/12/23 08:30:14;;;;;;;31.70;14.63;;;-1.30;82.60;;;-1.04;64.45;97520.03;4986794;28;20050;-47
2021/12/23 08:32:42;;;;;;;26.50;13.03;;;-1.30;82.30;;;-1.03;63.56;97506.03;4987646;28;20464;-51
2021/12/23 08:35:11;;;;;;;29.27;13.00;;;-1.30;82.60;;;-1.00;64.25;97511.06;4987235;28;20062;-49
2021/12/23 08:37:49;;;;;;;26.10;14.70;;;-1.30;83.10;;;-0.96;64.16;97514.34;4986858;28;20058;-46
2021/12/23 08:40:23;;;;;;;31.47;13.30;;;-1.30;83.30;;;-0.92;64.02;97504.53;4987399;28;20052;-47
2021/12/23 08:42:52;;;;;;;30.90;14.57;;;-1.20;83.50;;;-0.91;64.33;97499.22;4987827;28;20078;-47
2021/12/23 08:45:20;;;;;;;26.33;13.37;;;-1.30;83.30;;;-0.89;63.81;97509.56;4986220;28;20042;-48
2021/12/23 08:47:49;;;;;;;27.67;14.07;;;-1.30;83.70;;;-0.89;64.69;97502.59;4986507;28;20046;-47
2021/12/23 08:50:19;;;;;;;35.43;15.83;;;-1.20;83.60;;;-0.86;64.02;97475.41;4988928;28;20046;-51
2021/12/23 08:52:47;;;;;;;31.27;15.90;;;-1.20;84.00;;;-0.80;64.09;97475.84;4985612;28;20062;-49
2021/12/23 08:55:16;;;;;;;37.20;18.33;;;-1.10;84.50;;;-0.71;64.21;97481.47;4989148;28;20046;-50
2021/12/23 08:57:45;;;;;;;38.93;18.87;;;-1.00;84.40;;;-0.65;64.28;97489.75;4987435;28;20058;-48
2021/12/23 09:00:18;;;;;;;34.13;18.23;;;-0.90;84.70;;;-0.60;64.33;97485.09;5002037;28;20052;-46
2021/12/23 09:02:48;;;;;;;33.15;15.88;;;-0.80;84.50;;;-0.55;64.81;97490.03;5013635;28;20045;-49
2021/12/23 09:05:19;;;;;;;30.10;14.07;;;-0.80;84.20;;;-0.52;64.66;97484.63;5015410;28;20041;-48
2021/12/23 09:07:50;;;;;;;41.57;21.67;;;-0.80;84.30;;;-0.49;64.52;97494.03;5013390;28;20041;-47
2021/12/23 09:10:19;;;;;;;41.77;19.90;;;-0.70;84.30;;;-0.46;64.79;97486.00;5017747;28;20253;-47
2021/12/23 09:12:48;;;;;;;55.57;27.97;;;-0.70;84.20;;;-0.44;64.29;97492.00;5014730;28;20378;-50
2021/12/23 09:15:17;;;;;;;53.57;28.03;;;-0.70;84.80;;;-0.38;65.00;97488.16;5017119;28;20068;-46
2021/12/23 09:17:46;;;;;;;42.97;22.40;;;-0.60;85.00;;;-0.32;64.49;97496.44;5013403;28;20048;-47
2021/12/23 09:20:17;;;;;;;37.90;18.00;;;-0.50;85.10;;;-0.27;64.86;97498.75;5026211;28;20047;-49
2021/12/23 09:22:50;;;;;;;31.87;16.63;;;-0.50;84.90;;;-0.22;65.01;97494.06;5024684;28;20052;-47
2021/12/23 09:25:24;;;;;;;34.23;16.03;;;-0.40;85.00;;;-0.20;65.27;97489.56;5026473;28;20061;-48
2021/12/23 09:33:29;;;;;;;29.83;15.53;;;-0.40;84.90;;;-0.12;64.67;97478.63;5031308;28;20049;-49
2021/12/23 09:35:57;;;;;;;30.87;15.53;;;-0.40;85.00;;;-0.11;64.77;97485.56;5030115;28;20374;-48
2021/12/23 09:38:27;;;;;;;36.50;18.83;;;-0.40;84.80;;;-0.08;65.19;97485.34;5030689;28;20044;-46
2021/12/23 09:41:09;;;;;;;33.37;17.27;;;-0.30;84.60;;;-0.06;65.18;97486.06;5030886;28;20285;-45
2021/12/23 09:43:41;;;;;;;32.30;15.67;;;-0.30;84.80;;;-0.05;65.24;97482.53;5031462;28;20041;-48
2021/12/23 09:46:13;;;;;;;28.80;15.40;;;-0.30;84.80;;;-0.03;64.77;97471.00;5030708;28;20126;-47
2021/12/23 09:48:46;;;;;;;31.97;16.87;;;-0.20;84.90;;;0.02;64.86;97464.63;5030039;28;20060;-46
2021/12/23 09:51:18;;;;;;;29.48;14.77;;;-0.20;84.90;;;0.06;65.27;97466.13;5030040;28;20057;-48
2021/12/23 09:53:57;;;;;;;31.70;15.73;;;-0.20;84.90;;;0.09;65.27;97471.16;5029017;28;20045;-49
2021/12/23 09:56:28;;;;;;;33.47;17.83;;;-0.10;85.20;;;0.13;65.46;97463.00;5030012;28;20045;-47
2021/12/23 09:58:58;;;;;;;30.60;15.50;;;0.00;85.30;;;0.19;64.56;97459.13;5030026;28;20061;-50
2021/12/23 10:01:32;;;;;;;42.80;18.97;;;0.00;85.30;;;0.23;64.57;97462.41;5029320;28;20064;-48
2021/12/23 10:04:00;;;;;;;;;;;0.00;85.40;;;0.22;64.28;97461.56;5030184;28;20060;-46
2021/12/23 10:06:28;;;;;;;36.20;17.80;;;0.00;85.50;;;0.26;64.66;97457.81;5030349;28;19947;-48
2021/12/23 10:08:56;;;;;;;37.90;19.97;;;0.00;85.80;;;0.31;65.24;97447.00;5030624;28;20057;-47
2021/12/23 10:31:27;;;;;;;31.43;16.77;;;0.40;85.70;;;0.65;65.27;97447.38;5029117;28;20106;-49
2021/12/23 10:37:17;;;;;;;34.87;15.80;;;0.60;85.70;;;0.75;65.08;97437.94;5029380;28;20048;-45
2021/12/23 10:40:03;;;;;;;31.10;17.03;;;0.60;85.70;;;0.80;65.35;97437.63;5028445;28;20260;-46
2021/12/23 10:42:31;;;;;;;34.27;16.73;;;0.60;85.80;;;0.80;65.31;97425.38;5029946;28;20049;-46
2021/12/23 10:45:12;;;;;;;32.60;17.80;;;0.60;86.00;;;0.84;64.92;97413.72;5029001;28;20041;-45
2021/12/23 10:48:04;;;;;;;36.53;16.53;;;0.70;85.90;;;0.87;65.26;97407.41;5029047;28;20503;-45
2021/12/23 10:59:18;;;;;;;32.77;17.13;;;0.80;86.20;;;1.06;65.20;97388.63;5030426;28;20049;-45
2021/12/23 11:02:17;;;;;;;31.00;16.50;;;0.90;86.20;;;1.11;64.86;97397.84;5029408;28;20048;-46
2021/12/23 11:05:22;;;;;;;30.70;14.47;;;1.00;86.10;;;1.16;65.64;97390.50;5028084;28;20057;-44
2021/12/23 11:38:47;;;;;;;29.57;15.37;;;1.50;86.60;;;1.63;65.35;97345.19;5028015;28;20061;-46
2021/12/23 11:43:57;;;;;;;28.57;14.93;;;1.50;86.70;;;1.70;65.80;97336.75;5028619;28;20053;-46